createdAt,value
2023-03-10T00:00:00.324Z,21
2023-03-10T00:01:04.593Z,21
2023-03-10T00:02:08.913Z,20.98
2023-03-10T00:03:13.170Z,21.03
2023-03-10T00:04:17.487Z,21.03
2023-03-10T00:05:22.081Z,21.07
2023-03-10T00:06:26.518Z,21.03
2023-03-10T00:07:30.815Z,21
2023-03-10T00:08:35.057Z,20.99
2023-03-10T00:09:39.351Z,21
2023-03-10T00:10:43.606Z,21.07
2023-03-10T00:11:47.871Z,21.04
2023-03-10T00:12:52.142Z,20.99
2023-03-10T00:13:56.464Z,21.01
2023-03-10T00:15:00.741Z,21.01
2023-03-10T00:16:05.056Z,21.04
2023-03-10T00:17:09.560Z,21
2023-03-10T00:18:13.854Z,21.01
2023-03-10T00:19:18.108Z,21.01
2023-03-10T00:20:22.383Z,20.97
2023-03-10T00:21:26.717Z,21
2023-03-10T00:22:31.035Z,20.99
2023-03-10T00:23:37.413Z,20.99
2023-03-10T00:24:41.754Z,20.99
2023-03-10T00:25:46.077Z,20.97
2023-03-10T00:26:50.346Z,20.96
2023-03-10T00:27:54.603Z,20.96
2023-03-10T00:28:58.867Z,20.96
2023-03-10T00:30:03.180Z,20.95
2023-03-10T00:31:07.508Z,20.95
2023-03-10T00:32:12.068Z,20.99
2023-03-10T00:33:16.516Z,20.98
2023-03-10T00:34:20.811Z,20.98
2023-03-10T00:35:25.069Z,20.98
2023-03-10T00:36:29.407Z,20.97
2023-03-10T00:37:33.698Z,20.95
2023-03-10T00:38:37.963Z,20.95
2023-03-10T00:39:42.275Z,20.93
2023-03-10T00:40:46.576Z,20.93
2023-03-10T00:41:50.905Z,20.92
2023-03-10T00:42:55.176Z,20.9
2023-03-10T00:43:59.423Z,20.93
2023-03-10T00:45:03.716Z,20.95
2023-03-10T00:46:07.996Z,20.94
2023-03-10T00:47:12.530Z,20.93
2023-03-10T00:48:16.797Z,20.92
2023-03-10T00:49:21.072Z,20.95
2023-03-10T00:50:25.313Z,20.95
2023-03-10T00:51:29.571Z,20.95
2023-03-10T00:52:33.876Z,20.92
2023-03-10T00:53:38.177Z,20.93
2023-03-10T00:54:42.473Z,20.95
2023-03-10T00:55:46.760Z,20.92
2023-03-10T00:56:51.071Z,20.91
2023-03-10T00:57:58.499Z,20.92
2023-03-10T00:59:02.753Z,20.9
2023-03-10T01:00:08.029Z,20.88
2023-03-10T01:01:12.335Z,20.89
2023-03-10T01:02:16.714Z,20.92
2023-03-10T01:03:21.035Z,20.92
2023-03-10T01:04:25.422Z,20.91
2023-03-10T01:05:30.054Z,20.89
2023-03-10T01:06:34.380Z,20.87
2023-03-10T01:07:38.642Z,20.86
2023-03-10T01:08:42.894Z,20.87
2023-03-10T01:09:47.163Z,20.87
2023-03-10T01:10:51.449Z,20.88
2023-03-10T01:11:55.715Z,20.91
2023-03-10T01:13:00.068Z,20.88
2023-03-10T01:14:04.337Z,20.9
2023-03-10T01:15:08.634Z,20.92
2023-03-10T01:16:12.987Z,20.92
2023-03-10T01:17:17.568Z,20.91
2023-03-10T01:18:21.867Z,20.9
2023-03-10T01:19:26.239Z,20.86
2023-03-10T01:20:30.542Z,20.83
2023-03-10T01:21:34.835Z,20.82
2023-03-10T01:22:39.205Z,20.85
2023-03-10T01:23:43.478Z,20.83
2023-03-10T01:24:47.736Z,20.82
2023-03-10T01:25:51.982Z,20.84
2023-03-10T01:26:56.242Z,20.84
2023-03-10T01:28:00.519Z,20.84
2023-03-10T01:29:04.815Z,20.82
2023-03-10T01:30:09.112Z,20.88
2023-03-10T01:31:13.515Z,20.91
2023-03-10T01:32:18.166Z,20.9
2023-03-10T01:33:22.599Z,20.92
2023-03-10T01:34:26.855Z,20.91
2023-03-10T01:35:31.150Z,20.93
2023-03-10T01:36:35.630Z,20.92
2023-03-10T01:37:39.902Z,20.89
2023-03-10T01:38:46.910Z,20.9
2023-03-10T01:39:51.175Z,20.91
2023-03-10T01:40:55.464Z,20.9
2023-03-10T01:41:59.740Z,20.89
2023-03-10T01:43:03.991Z,20.88
2023-03-10T01:44:08.319Z,20.9
2023-03-10T01:45:12.584Z,20.87
2023-03-10T01:46:16.889Z,20.86
2023-03-10T01:47:21.307Z,20.87
2023-03-10T01:48:25.571Z,20.86
2023-03-10T01:49:29.853Z,20.85
2023-03-10T01:50:34.147Z,20.81
2023-03-10T01:51:38.424Z,20.82
2023-03-10T01:52:42.718Z,20.83
2023-03-10T01:53:46.973Z,20.84
2023-03-10T01:54:51.278Z,20.84
2023-03-10T01:55:55.578Z,20.82
2023-03-10T01:56:59.828Z,20.84
2023-03-10T01:58:04.125Z,20.85
2023-03-10T01:59:08.420Z,20.85
2023-03-10T02:00:12.691Z,20.83
2023-03-10T02:01:17.030Z,20.85
2023-03-10T02:02:21.656Z,20.84
2023-03-10T02:03:26.266Z,20.84
2023-03-10T02:04:30.586Z,20.86
2023-03-10T02:05:35.495Z,20.87
2023-03-10T02:06:39.764Z,20.81
2023-03-10T02:07:44.070Z,20.79
2023-03-10T02:08:48.348Z,20.76
2023-03-10T02:09:52.622Z,20.79
2023-03-10T02:10:57.164Z,20.78
2023-03-10T02:12:01.462Z,20.81
2023-03-10T02:13:05.721Z,20.8
2023-03-10T02:14:10.033Z,20.79
2023-03-10T02:15:14.419Z,20.81
2023-03-10T02:16:18.859Z,20.84
2023-03-10T02:17:23.487Z,20.82
2023-03-10T02:18:27.913Z,20.82
2023-03-10T02:19:32.199Z,20.83
2023-03-10T02:20:36.463Z,20.84
2023-03-10T02:21:40.722Z,20.82
2023-03-10T02:22:44.991Z,20.76
2023-03-10T02:23:58.920Z,20.77
2023-03-10T02:25:05.353Z,20.77
2023-03-10T02:26:09.625Z,20.8
2023-03-10T02:27:13.913Z,20.77
2023-03-10T02:28:18.206Z,20.76
2023-03-10T02:29:22.487Z,20.78
2023-03-10T02:30:26.754Z,20.79
2023-03-10T02:31:31.074Z,20.81
2023-03-10T02:32:35.523Z,20.83
2023-03-10T02:33:39.923Z,20.78
2023-03-10T02:34:44.287Z,20.79
2023-03-10T02:35:48.632Z,20.79
2023-03-10T02:36:53.011Z,20.78
2023-03-10T02:37:57.311Z,20.76
2023-03-10T02:39:01.609Z,20.76
2023-03-10T02:40:05.858Z,20.78
2023-03-10T02:41:10.153Z,20.77
2023-03-10T02:42:14.425Z,20.74
2023-03-10T02:43:18.676Z,20.74
2023-03-10T02:44:23.354Z,20.74
2023-03-10T02:45:27.655Z,20.75
2023-03-10T02:46:32.069Z,20.77
2023-03-10T02:47:36.337Z,20.77
2023-03-10T02:48:40.598Z,20.76
2023-03-10T02:49:44.880Z,20.75
2023-03-10T02:50:49.147Z,20.74
2023-03-10T02:51:53.440Z,20.74
2023-03-10T02:52:57.732Z,20.72
2023-03-10T02:54:02.048Z,20.74
2023-03-10T02:55:06.644Z,20.76
2023-03-10T02:56:10.945Z,20.76
2023-03-10T02:57:15.239Z,20.74
2023-03-10T02:58:19.555Z,20.76
2023-03-10T02:59:23.851Z,20.77
2023-03-10T03:00:28.110Z,20.76
2023-03-10T03:01:32.534Z,20.76
2023-03-10T03:02:36.920Z,20.72
2023-03-10T03:03:41.264Z,20.75
2023-03-10T03:04:45.752Z,20.75
2023-03-10T03:05:50.031Z,20.75
2023-03-10T03:06:54.288Z,20.74
2023-03-10T03:07:58.545Z,20.76
2023-03-10T03:09:02.847Z,20.75
2023-03-10T03:10:07.140Z,20.76
2023-03-10T03:11:11.389Z,20.76
2023-03-10T03:12:15.649Z,20.79
2023-03-10T03:13:19.890Z,20.79
2023-03-10T03:14:24.198Z,20.77
2023-03-10T03:15:28.462Z,20.77
2023-03-10T03:16:32.769Z,20.78
2023-03-10T03:17:37.414Z,20.78
2023-03-10T03:18:41.719Z,20.81
2023-03-10T03:19:46.082Z,20.79
2023-03-10T03:20:50.345Z,20.76
2023-03-10T03:21:54.609Z,20.79
2023-03-10T03:22:58.871Z,20.75
2023-03-10T03:24:03.134Z,20.75
2023-03-10T03:25:07.409Z,20.74
2023-03-10T03:26:11.663Z,20.74
2023-03-10T03:27:15.947Z,20.72
2023-03-10T03:28:20.213Z,20.75
2023-03-10T03:29:24.499Z,20.72
2023-03-10T03:30:28.755Z,20.73
2023-03-10T03:31:33.061Z,20.74
2023-03-10T03:32:37.549Z,20.71
2023-03-10T03:33:42.044Z,20.7
2023-03-10T03:34:46.347Z,20.68
2023-03-10T03:35:50.610Z,20.7
2023-03-10T03:36:55.014Z,20.72
2023-03-10T03:37:59.285Z,20.71
2023-03-10T03:39:03.530Z,20.69
2023-03-10T03:40:07.805Z,20.71
2023-03-10T03:41:12.161Z,20.73
2023-03-10T03:42:16.484Z,20.75
2023-03-10T03:43:20.759Z,20.74
2023-03-10T03:44:25.022Z,20.71
2023-03-10T03:45:29.303Z,20.71
2023-03-10T03:46:33.625Z,20.72
2023-03-10T03:47:38.090Z,20.69
2023-03-10T03:48:42.437Z,20.69
2023-03-10T03:49:46.716Z,20.71
2023-03-10T03:50:51.006Z,20.71
2023-03-10T03:51:55.270Z,20.7
2023-03-10T03:52:59.570Z,20.69
2023-03-10T03:54:03.854Z,20.7
2023-03-10T03:55:08.154Z,20.72
2023-03-10T03:56:12.426Z,20.71
2023-03-10T03:57:16.695Z,20.67
2023-03-10T03:58:20.970Z,20.68
2023-03-10T03:59:25.257Z,20.67
2023-03-10T04:00:29.543Z,20.67
2023-03-10T04:01:33.791Z,20.66
2023-03-10T04:02:38.101Z,20.67
2023-03-10T04:03:42.577Z,20.66
2023-03-10T04:04:47.058Z,20.66
2023-03-10T04:05:51.324Z,20.68
2023-03-10T04:06:55.692Z,20.7
2023-03-10T04:07:59.974Z,20.68
2023-03-10T04:09:04.283Z,20.66
2023-03-10T04:10:08.597Z,20.66
2023-03-10T04:11:12.869Z,20.68
2023-03-10T04:12:17.123Z,20.65
2023-03-10T04:13:21.378Z,20.66
2023-03-10T04:14:25.640Z,20.61
2023-03-10T04:15:30.189Z,20.65
2023-03-10T04:16:34.606Z,20.64
2023-03-10T04:17:38.883Z,20.62
2023-03-10T04:18:43.194Z,20.64
2023-03-10T04:19:57.283Z,20.65
2023-03-10T04:21:11.246Z,20.62
2023-03-10T04:22:15.530Z,20.6
2023-03-10T04:23:19.844Z,20.67
2023-03-10T04:24:24.127Z,20.65
2023-03-10T04:25:28.369Z,20.64
2023-03-10T04:26:32.738Z,20.63
2023-03-10T04:27:36.994Z,20.66
2023-03-10T04:28:41.276Z,20.68
2023-03-10T04:29:45.528Z,20.71
2023-03-10T04:30:49.831Z,20.7
2023-03-10T04:32:04.683Z,20.71
2023-03-10T04:33:09.415Z,20.72
2023-03-10T04:34:13.899Z,20.73
2023-03-10T04:35:18.195Z,20.71
2023-03-10T04:36:22.439Z,20.72
2023-03-10T04:37:26.722Z,20.72
2023-03-10T04:38:31.014Z,20.7
2023-03-10T04:39:35.324Z,20.66
2023-03-10T04:40:39.659Z,20.68
2023-03-10T04:41:43.961Z,20.64
2023-03-10T04:42:48.251Z,20.66
2023-03-10T04:43:52.497Z,20.64
2023-03-10T04:44:56.849Z,20.65
2023-03-10T04:46:01.154Z,20.62
2023-03-10T04:47:05.582Z,20.62
2023-03-10T04:48:09.846Z,20.61
2023-03-10T04:49:14.127Z,20.61
2023-03-10T04:50:18.420Z,20.62
2023-03-10T04:51:22.670Z,20.62
2023-03-10T04:52:26.940Z,20.61
2023-03-10T04:53:31.203Z,20.63
2023-03-10T04:54:35.472Z,20.62
2023-03-10T04:55:39.744Z,20.62
2023-03-10T04:56:44.167Z,20.68
2023-03-10T04:57:48.464Z,20.65
2023-03-10T04:58:53.025Z,20.64
2023-03-10T04:59:59.841Z,20.71
2023-03-10T05:01:06.910Z,20.72
2023-03-10T05:02:11.453Z,20.67
2023-03-10T05:03:15.987Z,20.7
2023-03-10T05:04:21.321Z,20.71
2023-03-10T05:05:25.773Z,20.84
2023-03-10T05:06:30.086Z,20.98
2023-03-10T05:07:34.501Z,21.06
2023-03-10T05:08:38.751Z,21.11
2023-03-10T05:09:43.068Z,21.15
2023-03-10T05:10:47.344Z,21.15
2023-03-10T05:11:51.620Z,21.21
2023-03-10T05:12:55.920Z,21.28
2023-03-10T05:14:00.199Z,21.33
2023-03-10T05:15:04.706Z,21.42
2023-03-10T05:16:09.088Z,21.49
2023-03-10T05:17:13.529Z,21.6
2023-03-10T05:18:17.779Z,21.69
2023-03-10T05:19:22.051Z,21.76
2023-03-10T05:20:26.362Z,21.82
2023-03-10T05:21:30.649Z,21.87
2023-03-10T05:22:34.898Z,21.91
2023-03-10T05:23:39.171Z,21.96
2023-03-10T05:24:43.482Z,21.99
2023-03-10T05:25:47.805Z,22.02
2023-03-10T05:26:52.092Z,22.03
2023-03-10T05:27:56.338Z,22.04
2023-03-10T05:29:00.611Z,22.06
2023-03-10T05:30:04.887Z,22.07
2023-03-10T05:31:11.505Z,22.09
2023-03-10T05:32:16.339Z,22.09
2023-03-10T05:33:20.776Z,22.1
2023-03-10T05:34:25.039Z,22.1
2023-03-10T05:35:29.360Z,22.11
2023-03-10T05:36:33.617Z,22.1
2023-03-10T05:37:37.889Z,22.09
2023-03-10T05:38:42.170Z,22.06
2023-03-10T05:39:46.518Z,22.04
2023-03-10T05:40:50.824Z,22.01
2023-03-10T05:41:55.095Z,22.01
2023-03-10T05:42:59.407Z,21.98
2023-03-10T05:44:03.687Z,21.94
2023-03-10T05:45:07.942Z,21.9
2023-03-10T05:46:12.259Z,21.88
2023-03-10T05:47:19.035Z,21.86
2023-03-10T05:48:23.345Z,21.82
2023-03-10T05:49:27.838Z,21.81
2023-03-10T05:50:32.118Z,21.78
2023-03-10T05:51:36.363Z,21.74
2023-03-10T05:52:40.631Z,21.74
2023-03-10T05:53:44.944Z,21.74
2023-03-10T05:54:49.290Z,21.74
2023-03-10T05:55:53.631Z,21.71
2023-03-10T05:56:57.940Z,21.69
2023-03-10T05:58:02.235Z,21.68
2023-03-10T05:59:06.504Z,21.66
2023-03-10T06:00:10.844Z,21.66
2023-03-10T06:01:15.114Z,21.62
2023-03-10T06:02:19.472Z,21.62
2023-03-10T06:03:23.863Z,21.58
2023-03-10T06:04:28.713Z,21.6
2023-03-10T06:05:33.186Z,21.6
2023-03-10T06:06:37.428Z,21.63
2023-03-10T06:07:41.945Z,21.64
2023-03-10T06:08:46.616Z,21.62
2023-03-10T06:09:50.897Z,21.59
2023-03-10T06:10:55.179Z,21.58
2023-03-10T06:11:59.476Z,21.55
2023-03-10T06:13:03.794Z,21.55
2023-03-10T06:14:08.217Z,21.54
2023-03-10T06:15:12.504Z,21.52
2023-03-10T06:16:16.856Z,21.5
2023-03-10T06:17:21.359Z,21.5
2023-03-10T06:18:25.818Z,21.49
2023-03-10T06:19:30.136Z,21.48
2023-03-10T06:20:34.434Z,21.46
2023-03-10T06:21:38.693Z,21.45
2023-03-10T06:22:42.949Z,21.43
2023-03-10T06:23:47.216Z,21.4
2023-03-10T06:24:51.497Z,21.37
2023-03-10T06:25:55.798Z,21.36
2023-03-10T06:27:00.050Z,21.34
2023-03-10T06:28:04.454Z,21.32
2023-03-10T06:29:12.094Z,21.32
2023-03-10T06:30:16.362Z,21.32
2023-03-10T06:31:20.711Z,21.35
2023-03-10T06:32:25.227Z,21.32
2023-03-10T06:33:29.660Z,21.31
2023-03-10T06:34:33.974Z,21.28
2023-03-10T06:35:38.332Z,21.26
2023-03-10T06:36:42.817Z,21.21
2023-03-10T06:37:47.200Z,21.21
2023-03-10T06:38:51.499Z,21.2
2023-03-10T06:39:55.789Z,21.19
2023-03-10T06:41:00.133Z,21.17
2023-03-10T06:42:04.399Z,21.15
2023-03-10T06:43:08.637Z,21.14
2023-03-10T06:44:12.920Z,21.13
2023-03-10T06:45:17.157Z,21.13
2023-03-10T06:46:21.553Z,21.14
2023-03-10T06:47:25.938Z,21.15
2023-03-10T06:48:30.521Z,21.17
2023-03-10T06:49:34.885Z,21.19
2023-03-10T06:50:39.174Z,21.21
2023-03-10T06:51:43.474Z,21.23
2023-03-10T06:52:47.786Z,21.25
2023-03-10T06:53:52.078Z,21.25
2023-03-10T06:54:56.346Z,21.25
2023-03-10T06:56:00.657Z,21.29
2023-03-10T06:57:04.962Z,21.31
2023-03-10T06:58:09.316Z,21.33
2023-03-10T06:59:13.615Z,21.34
2023-03-10T07:00:17.865Z,21.34
2023-03-10T07:01:22.194Z,21.35
2023-03-10T07:02:26.765Z,21.33
2023-03-10T07:03:31.039Z,21.34
2023-03-10T07:04:35.416Z,21.32
2023-03-10T07:05:39.821Z,21.33
2023-03-10T07:06:44.156Z,21.31
2023-03-10T07:07:48.435Z,21.31
2023-03-10T07:08:52.710Z,21.3
2023-03-10T07:09:57.011Z,21.27
2023-03-10T07:11:01.269Z,21.27
2023-03-10T07:12:05.521Z,21.25
2023-03-10T07:13:09.780Z,21.25
2023-03-10T07:14:14.072Z,21.25
2023-03-10T07:15:18.363Z,21.23
2023-03-10T07:16:22.740Z,21.22
2023-03-10T07:17:27.353Z,21.22
2023-03-10T07:18:31.637Z,21.22
2023-03-10T07:19:35.910Z,21.2
2023-03-10T07:20:40.238Z,21.21
2023-03-10T07:21:44.530Z,21.21
2023-03-10T07:22:48.831Z,21.2
2023-03-10T07:23:53.102Z,21.2
2023-03-10T07:24:57.830Z,21.21
2023-03-10T07:26:02.483Z,21.2
2023-03-10T07:27:06.758Z,21.2
2023-03-10T07:28:11.069Z,21.18
2023-03-10T07:29:15.594Z,21.2
2023-03-10T07:30:19.898Z,21.19
2023-03-10T07:31:24.313Z,21.19
2023-03-10T07:32:29.212Z,21.2
2023-03-10T07:33:33.698Z,21.21
2023-03-10T07:34:37.963Z,21.21
2023-03-10T07:35:42.243Z,21.22
2023-03-10T07:36:46.751Z,21.26
2023-03-10T07:37:51.024Z,21.26
2023-03-10T07:38:55.274Z,21.28
2023-03-10T07:39:59.579Z,21.28
2023-03-10T07:41:03.849Z,21.28
2023-03-10T07:42:08.108Z,21.3
2023-03-10T07:43:12.412Z,21.33
2023-03-10T07:44:16.955Z,21.34
2023-03-10T07:45:21.239Z,21.36
2023-03-10T07:46:25.550Z,21.36
2023-03-10T07:47:29.996Z,21.36
2023-03-10T07:48:34.330Z,21.34
2023-03-10T07:49:38.623Z,21.34
2023-03-10T07:50:43.111Z,21.35
2023-03-10T07:51:50.425Z,21.34
2023-03-10T07:52:54.667Z,21.35
2023-03-10T07:53:58.955Z,21.33
2023-03-10T07:55:03.221Z,21.3
2023-03-10T07:56:07.480Z,21.29
2023-03-10T07:57:11.814Z,21.3
2023-03-10T07:58:16.113Z,21.31
2023-03-10T07:59:21.414Z,21.31
2023-03-10T08:00:25.705Z,21.32
2023-03-10T08:01:30.043Z,21.32
2023-03-10T08:02:34.363Z,21.29
2023-03-10T08:03:39.405Z,21.28
2023-03-10T08:04:45.051Z,21.3
2023-03-10T08:05:49.772Z,21.3
2023-03-10T08:06:54.066Z,21.26
2023-03-10T08:07:58.439Z,21.29
2023-03-10T08:09:02.737Z,21.28
2023-03-10T08:10:07.048Z,21.28
2023-03-10T08:11:11.294Z,21.26
2023-03-10T08:12:15.560Z,21.25
2023-03-10T08:13:19.914Z,21.22
2023-03-10T08:14:24.493Z,21.22
2023-03-10T08:15:28.802Z,21.2
2023-03-10T08:16:33.218Z,21.18
2023-03-10T08:17:38.071Z,21.16
2023-03-10T08:18:42.903Z,21.17
2023-03-10T08:19:47.163Z,21.18
2023-03-10T08:20:51.440Z,21.16
2023-03-10T08:21:55.706Z,21.15
2023-03-10T08:23:00.093Z,21.15
2023-03-10T08:24:04.364Z,21.13
2023-03-10T08:25:08.621Z,21.18
2023-03-10T08:26:12.994Z,21.15
2023-03-10T08:27:17.255Z,21.12
2023-03-10T08:28:21.544Z,21.1
2023-03-10T08:29:25.816Z,21.08
2023-03-10T08:30:30.104Z,21.08
2023-03-10T08:31:34.410Z,21.06
2023-03-10T08:32:38.985Z,21.05
2023-03-10T08:33:43.874Z,21.05
2023-03-10T08:34:48.173Z,21.05
2023-03-10T08:35:52.485Z,21.04
2023-03-10T08:36:56.884Z,21.05
2023-03-10T08:38:01.227Z,21.06
2023-03-10T08:39:05.551Z,21.07
2023-03-10T08:40:09.846Z,21.08
2023-03-10T08:41:14.135Z,21.06
2023-03-10T08:42:18.449Z,21.07
2023-03-10T08:43:22.762Z,21.07
2023-03-10T08:44:27.195Z,21.11
2023-03-10T08:45:31.592Z,21.13
2023-03-10T08:46:35.886Z,21.15
2023-03-10T08:47:40.657Z,21.18
2023-03-10T08:48:44.979Z,21.2
2023-03-10T08:49:49.300Z,21.22
2023-03-10T08:50:53.565Z,21.28
2023-03-10T08:51:57.844Z,21.32
2023-03-10T08:53:02.154Z,21.3
2023-03-10T08:54:06.432Z,21.32
2023-03-10T08:55:10.736Z,21.36
2023-03-10T08:56:15.049Z,21.36
2023-03-10T08:57:19.573Z,21.38
2023-03-10T08:58:23.871Z,21.39
2023-03-10T08:59:28.178Z,21.41
2023-03-10T09:00:32.442Z,21.42
2023-03-10T09:01:36.822Z,21.43
2023-03-10T09:02:41.476Z,21.43
2023-03-10T09:03:45.932Z,21.42
2023-03-10T09:04:50.221Z,21.42
2023-03-10T09:05:54.564Z,21.41
2023-03-10T09:06:58.840Z,21.4
2023-03-10T09:08:03.110Z,21.37
2023-03-10T09:09:07.394Z,21.38
2023-03-10T09:10:11.697Z,21.35
2023-03-10T09:11:15.975Z,21.35
2023-03-10T09:12:20.240Z,21.31
2023-03-10T09:13:24.523Z,21.3
2023-03-10T09:14:28.789Z,21.31
2023-03-10T09:15:33.051Z,21.27
2023-03-10T09:16:37.646Z,21.27
2023-03-10T09:17:42.182Z,21.28
2023-03-10T09:18:46.560Z,21.28
2023-03-10T09:19:50.880Z,21.3
2023-03-10T09:20:55.160Z,21.3
2023-03-10T09:21:59.436Z,21.31
2023-03-10T09:23:03.777Z,21.28
2023-03-10T09:24:08.041Z,21.27
2023-03-10T09:25:14.679Z,21.27
2023-03-10T09:26:18.953Z,21.27
2023-03-10T09:27:23.234Z,21.23
2023-03-10T09:28:27.546Z,21.27
2023-03-10T09:29:42.499Z,21.25
2023-03-10T09:30:47.287Z,21.24
2023-03-10T09:31:51.600Z,21.24
2023-03-10T09:32:57.568Z,21.22
2023-03-10T09:34:02.036Z,21.21
2023-03-10T09:35:06.340Z,21.21
2023-03-10T09:36:10.629Z,21.12
2023-03-10T09:37:15.157Z,21.04
2023-03-10T09:38:19.464Z,20.93
2023-03-10T09:39:23.737Z,20.84
2023-03-10T09:40:27.998Z,20.72
2023-03-10T09:41:34.218Z,20.66
2023-03-10T09:42:41.573Z,20.6
2023-03-10T09:43:45.829Z,20.52
2023-03-10T09:44:50.122Z,20.5
2023-03-10T09:45:54.413Z,20.44
2023-03-10T09:46:59.008Z,20.43
2023-03-10T09:48:04.847Z,20.37
2023-03-10T09:49:09.269Z,20.36
2023-03-10T09:50:13.562Z,20.49
2023-03-10T09:51:17.824Z,20.59
2023-03-10T09:52:22.089Z,20.71
2023-03-10T09:53:26.335Z,20.8
2023-03-10T09:54:30.628Z,20.9
2023-03-10T09:55:35.540Z,21
2023-03-10T09:56:51.193Z,21.11
2023-03-10T09:57:58.107Z,21.19
2023-03-10T09:59:04.304Z,21.27
2023-03-10T10:00:08.644Z,21.34
2023-03-10T10:01:12.940Z,21.39
2023-03-10T10:02:17.454Z,21.44
2023-03-10T10:03:21.789Z,21.49
2023-03-10T10:04:26.427Z,21.51
2023-03-10T10:05:30.840Z,21.54
2023-03-10T10:06:35.174Z,21.56
2023-03-10T10:07:39.423Z,21.58
2023-03-10T10:08:49.006Z,21.6
2023-03-10T10:10:08.108Z,21.63
2023-03-10T10:11:12.390Z,21.66
2023-03-10T10:12:16.709Z,21.67
2023-03-10T10:13:21.352Z,21.67
2023-03-10T10:14:29.770Z,21.68
2023-03-10T10:15:35.727Z,21.7
2023-03-10T10:16:40.070Z,21.69
2023-03-10T10:17:52.846Z,21.69
2023-03-10T10:19:20.674Z,21.69
2023-03-10T10:20:27.291Z,21.68
2023-03-10T10:21:40.472Z,21.67
2023-03-10T10:22:46.743Z,21.62
2023-03-10T10:23:51.008Z,21.59
2023-03-10T10:24:57.495Z,21.58
2023-03-10T10:26:02.702Z,21.58
2023-03-10T10:27:07.021Z,21.55
2023-03-10T10:28:11.327Z,21.53
2023-03-10T10:29:15.607Z,21.51
2023-03-10T10:30:19.894Z,21.51
2023-03-10T10:31:24.301Z,21.48
2023-03-10T10:32:28.869Z,21.47
2023-03-10T10:33:33.258Z,21.45
2023-03-10T10:34:37.535Z,21.43
2023-03-10T10:35:41.885Z,21.42
2023-03-10T10:36:46.357Z,21.39
2023-03-10T10:37:50.609Z,21.39
2023-03-10T10:38:54.916Z,21.37
2023-03-10T10:39:59.362Z,21.36
2023-03-10T10:41:06.678Z,21.35
2023-03-10T10:42:11.568Z,21.35
2023-03-10T10:43:15.920Z,21.34
2023-03-10T10:44:20.216Z,21.33
2023-03-10T10:45:24.536Z,21.32
2023-03-10T10:46:28.913Z,21.29
2023-03-10T10:47:33.416Z,21.28
2023-03-10T10:48:37.698Z,21.28
2023-03-10T10:49:42.076Z,21.26
2023-03-10T10:50:46.331Z,21.24
2023-03-10T10:51:50.946Z,21.23
2023-03-10T10:52:57.995Z,21.21
2023-03-10T10:54:02.270Z,21.2
2023-03-10T10:55:06.594Z,21.22
2023-03-10T10:56:10.885Z,21.23
2023-03-10T10:57:15.190Z,21.22
2023-03-10T10:58:19.469Z,21.21
2023-03-10T10:59:23.741Z,21.23
2023-03-10T11:00:28.038Z,21.21
2023-03-10T11:01:32.353Z,21.22
2023-03-10T11:02:37.665Z,21.22
2023-03-10T11:03:42.252Z,21.23
2023-03-10T11:04:46.505Z,21.2
2023-03-10T11:05:50.789Z,21.21
2023-03-10T11:06:57.673Z,21.22
2023-03-10T11:08:01.960Z,21.19
2023-03-10T11:09:08.276Z,21.2
2023-03-10T11:10:15.370Z,21.21
2023-03-10T11:11:19.658Z,21.19
2023-03-10T11:12:23.958Z,21.19
2023-03-10T11:13:28.225Z,21.18
2023-03-10T11:14:32.586Z,21.21
2023-03-10T11:15:36.920Z,21.21
2023-03-10T11:16:41.654Z,21.2
2023-03-10T11:17:45.930Z,21.19
2023-03-10T11:18:51.570Z,21.19
2023-03-10T11:19:55.934Z,21.2
2023-03-10T11:21:00.226Z,21.2
2023-03-10T11:22:04.510Z,21.18
2023-03-10T11:23:08.888Z,21.19
2023-03-10T11:24:13.198Z,21.15
2023-03-10T11:25:17.503Z,21.14
2023-03-10T11:26:21.758Z,21.14
2023-03-10T11:27:26.014Z,21.12
2023-03-10T11:28:32.567Z,21.11
2023-03-10T11:29:36.857Z,21.11
2023-03-10T11:30:41.364Z,21.1
2023-03-10T11:31:45.769Z,21.1
2023-03-10T11:32:50.078Z,21.1
2023-03-10T11:33:54.709Z,21.1
2023-03-10T11:34:59.214Z,21.08
2023-03-10T11:36:03.623Z,21.04
2023-03-10T11:37:08.193Z,21.05
2023-03-10T11:38:12.476Z,21.04
2023-03-10T11:39:16.745Z,21.04
2023-03-10T11:40:21.019Z,21.04
2023-03-10T11:41:25.297Z,21.04
2023-03-10T11:42:30.595Z,21.03
2023-03-10T11:43:34.886Z,21.03
2023-03-10T11:44:39.232Z,21.05
2023-03-10T11:45:43.480Z,21.05
2023-03-10T11:46:47.893Z,21.06
2023-03-10T11:47:52.339Z,21.1
2023-03-10T11:48:56.612Z,21.11
2023-03-10T11:50:00.912Z,21.12
2023-03-10T11:51:05.196Z,21.13
2023-03-10T11:52:09.463Z,21.13
2023-03-10T11:53:13.835Z,21.16
2023-03-10T11:54:18.146Z,21.17
2023-03-10T11:55:22.674Z,21.18
2023-03-10T11:56:27.001Z,21.18
2023-03-10T11:57:31.281Z,21.19
2023-03-10T11:58:35.646Z,21.19
2023-03-10T11:59:39.951Z,21.21
2023-03-10T12:00:44.246Z,21.22
2023-03-10T12:01:48.508Z,21.23
2023-03-10T12:02:52.774Z,21.24
2023-03-10T12:03:57.201Z,21.26
2023-03-10T12:05:01.911Z,21.26
2023-03-10T12:06:06.393Z,21.28
2023-03-10T12:07:10.667Z,21.27
2023-03-10T12:08:14.961Z,21.29
2023-03-10T12:09:19.255Z,21.3
2023-03-10T12:10:23.562Z,21.32
2023-03-10T12:11:27.856Z,21.32
2023-03-10T12:12:32.337Z,21.34
2023-03-10T12:13:36.659Z,21.32
2023-03-10T12:14:40.945Z,21.34
2023-03-10T12:15:45.292Z,21.35
2023-03-10T12:16:49.934Z,21.35
2023-03-10T12:17:54.278Z,21.34
2023-03-10T12:18:58.615Z,21.34
2023-03-10T12:20:02.915Z,21.33
2023-03-10T12:21:07.163Z,21.32
2023-03-10T12:22:11.437Z,21.31
2023-03-10T12:23:15.722Z,21.3
2023-03-10T12:24:19.990Z,21.29
2023-03-10T12:25:24.297Z,21.29
2023-03-10T12:26:28.647Z,21.27
2023-03-10T12:27:32.987Z,21.26
2023-03-10T12:28:37.256Z,21.27
2023-03-10T12:29:41.530Z,21.25
2023-03-10T12:30:45.783Z,21.25
2023-03-10T12:31:50.141Z,21.26
2023-03-10T12:32:54.882Z,21.23
2023-03-10T12:33:59.680Z,21.23
2023-03-10T12:35:03.992Z,21.22
2023-03-10T12:36:08.320Z,21.23
2023-03-10T12:37:12.850Z,21.23
2023-03-10T12:38:17.132Z,21.22
2023-03-10T12:39:21.493Z,21.23
2023-03-10T12:40:25.953Z,21.23
2023-03-10T12:41:30.255Z,21.22
2023-03-10T12:42:34.539Z,21.21
2023-03-10T12:43:38.858Z,21.22
2023-03-10T12:44:43.157Z,21.21
2023-03-10T12:45:47.738Z,21.22
2023-03-10T12:46:52.436Z,21.23
2023-03-10T12:47:56.993Z,21.23
2023-03-10T12:49:01.310Z,21.25
2023-03-10T12:50:08.709Z,21.25
2023-03-10T12:51:12.975Z,21.25
2023-03-10T12:52:19.201Z,21.24
2023-03-10T12:53:23.543Z,21.24
2023-03-10T12:54:27.821Z,21.27
2023-03-10T12:55:32.080Z,21.27
2023-03-10T12:56:36.494Z,21.28
2023-03-10T12:57:40.808Z,21.3
2023-03-10T12:58:45.123Z,21.29
2023-03-10T12:59:49.422Z,21.31
2023-03-10T13:00:53.793Z,21.31
2023-03-10T13:01:58.322Z,21.32
2023-03-10T13:03:02.738Z,21.33
2023-03-10T13:04:07.078Z,21.32
2023-03-10T13:05:11.732Z,21.33
2023-03-10T13:06:15.991Z,21.33
2023-03-10T13:07:20.257Z,21.33
2023-03-10T13:08:24.516Z,21.33
2023-03-10T13:09:28.804Z,21.34
2023-03-10T13:10:33.069Z,21.33
2023-03-10T13:11:37.345Z,21.32
2023-03-10T13:12:41.795Z,21.33
2023-03-10T13:13:46.105Z,21.32
2023-03-10T13:14:50.348Z,21.32
2023-03-10T13:15:54.618Z,21.3
2023-03-10T13:16:58.983Z,21.29
2023-03-10T13:18:03.272Z,21.27
2023-03-10T13:19:07.582Z,21.27
2023-03-10T13:20:12.001Z,21.26
2023-03-10T13:21:16.352Z,21.25
2023-03-10T13:22:20.621Z,21.24
2023-03-10T13:23:24.921Z,21.25
2023-03-10T13:24:29.223Z,21.25
2023-03-10T13:25:33.512Z,21.22
2023-03-10T13:26:37.791Z,21.22
2023-03-10T13:27:42.120Z,21.22
2023-03-10T13:28:46.413Z,21.21
2023-03-10T13:29:50.743Z,21.21
2023-03-10T13:30:55.064Z,21.2
2023-03-10T13:31:59.471Z,21.19
2023-03-10T13:33:04.078Z,21.2
2023-03-10T13:34:08.392Z,21.2
2023-03-10T13:35:12.692Z,21.2
2023-03-10T13:36:17.082Z,21.2
2023-03-10T13:37:21.424Z,21.18
2023-03-10T13:38:25.713Z,21.18
2023-03-10T13:39:30.032Z,21.17
2023-03-10T13:40:34.347Z,21.19
2023-03-10T13:41:38.606Z,21.2
2023-03-10T13:42:44.635Z,21.2
2023-03-10T13:43:49.001Z,21.19
2023-03-10T13:44:53.305Z,21.16
2023-03-10T13:45:57.648Z,21.14
2023-03-10T13:47:03.284Z,21.14
2023-03-10T13:48:07.701Z,21.16
2023-03-10T13:49:11.989Z,21.12
2023-03-10T13:50:16.256Z,21.13
2023-03-10T13:51:20.529Z,21.1
2023-03-10T13:52:24.870Z,21.1
2023-03-10T13:53:29.206Z,21.13
2023-03-10T13:54:33.504Z,21.13